Time;durP1;ratioP1;P1;durP2;ratioP2;P2;SDS_P1;SDS_P2;PMS_P1;PMS_P2;Temp;Humidity;BMP_temperature;BMP_pressure;BME280_temperature;BME280_humidity;BME280_pressure;Samples;Min_cycle;Max_cycle;Signal;HPM_P1;HPM_P2
2022/06/20 00:01:16;;;;;;;13.63;3.28;;;13.50;99.90;;;;;;5061906;28;25055;-60
2022/06/20 00:03:47;;;;;;;9.27;3.08;;;13.50;99.90;;;;;;5071320;28;25133;-61
2022/06/20 00:06:17;;;;;;;10.47;3.53;;;13.40;99.90;;;;;;5041446;28;25075;-59
2022/06/20 00:08:43;;;;;;;19.80;3.40;;;13.40;99.90;;;;;;5060483;28;25078;-60
2022/06/20 00:11:17;;;;;;;10.20;3.05;;;13.40;99.90;;;;;;5052897;28;25065;-61
2022/06/20 00:13:46;;;;;;;13.35;3.38;;;13.50;99.90;;;;;;5063671;28;25065;-59
2022/06/20 00:16:14;;;;;;;17.25;3.35;;;13.50;99.90;;;;;;5058277;28;25065;-61
2022/06/20 00:18:40;;;;;;;12.77;2.95;;;13.50;99.90;;;;;;5063266;28;25068;-59
2022/06/20 00:21:10;;;;;;;14.50;3.10;;;13.40;99.90;;;;;;5060095;28;25077;-60
2022/06/20 00:23:36;;;;;;;11.27;3.08;;;13.40;99.90;;;;;;5057698;28;25057;-60
2022/06/20 00:26:01;;;;;;;9.18;3.05;;;13.40;99.90;;;;;;5064425;28;25056;-60
2022/06/20 00:28:27;;;;;;;9.57;2.80;;;13.40;99.90;;;;;;5065996;28;25056;-60
2022/06/20 00:30:52;;;;;;;11.05;3.00;;;13.40;99.90;;;;;;5067121;28;25074;-59
2022/06/20 00:33:18;;;;;;;11.88;3.75;;;13.50;99.90;;;;;;5052498;28;25145;-59
2022/06/20 00:35:44;;;;;;;8.55;2.85;;;13.50;99.90;;;;;;5054292;28;25073;-59
2022/06/20 00:38:17;;;;;;;9.85;3.95;;;13.40;99.90;;;;;;5053632;28;25064;-60
2022/06/20 00:40:49;;;;;;;18.27;4.15;;;13.30;99.90;;;;;;5048186;28;25160;-60
2022/06/20 00:43:23;;;;;;;5.68;3.10;;;13.30;99.90;;;;;;5052813;28;25058;-60
2022/06/20 00:45:51;;;;;;;11.40;3.25;;;13.30;99.90;;;;;;5058902;28;25125;-60
2022/06/20 00:48:26;;;;;;;8.80;4.03;;;13.30;99.90;;;;;;5050341;28;25059;-59
2022/06/20 00:50:56;;;;;;;15.70;4.55;;;13.30;99.90;;;;;;5059331;28;25106;-60
2022/06/20 00:53:28;;;;;;;12.45;3.47;;;13.30;99.90;;;;;;5070903;28;25081;-60
2022/06/20 00:56:03;;;;;;;9.68;3.75;;;13.30;99.90;;;;;;5060595;28;25094;-60
2022/06/20 00:58:42;;;;;;;11.27;3.30;;;13.30;99.90;;;;;;5078762;28;25103;-59
2022/06/20 01:01:12;;;;;;;11.07;3.22;;;13.30;99.90;;;;;;5062236;28;25053;-59
2022/06/20 01:03:47;;;;;;;11.27;2.83;;;13.40;99.90;;;;;;5067370;28;25069;-59
2022/06/20 01:06:33;;;;;;;11.93;2.75;;;13.60;99.90;;;;;;5067180;28;25146;-60
2022/06/20 01:09:05;;;;;;;7.82;2.88;;;13.80;99.90;;;;;;5056297;28;25114;-60
2022/06/20 01:11:49;;;;;;;9.00;2.45;;;14.00;99.90;;;;;;5055114;28;25063;-60
2022/06/20 01:14:36;;;;;;;13.13;3.05;;;14.00;99.90;;;;;;5061005;28;25080;-60
2022/06/20 01:17:15;;;;;;;13.30;3.67;;;14.00;99.90;;;;;;5058475;28;24722;-60
2022/06/20 01:20:05;;;;;;;9.55;2.83;;;14.20;99.90;;;;;;5051109;28;25117;-59
2022/06/20 01:22:36;;;;;;;8.80;2.50;;;14.30;99.90;;;;;;5056438;28;25056;-59
2022/06/20 01:25:27;;;;;;;11.80;2.70;;;14.30;99.90;;;;;;5062506;28;25054;-59
2022/06/20 01:27:53;;;;;;;10.45;2.58;;;14.10;99.90;;;;;;5060529;28;25156;-59
2022/06/20 01:30:23;;;;;;;10.95;2.65;;;13.80;99.90;;;;;;5059339;28;25065;-60
2022/06/20 01:32:49;;;;;;;9.95;3.05;;;13.70;99.90;;;;;;5061327;28;25085;-60
2022/06/20 01:38:01;;;;;;;17.67;3.65;;;13.50;99.90;;;;;;5063097;28;25071;-59
2022/06/20 01:40:29;;;;;;;10.60;2.90;;;13.50;99.90;;;;;;5068456;28;25080;-59
2022/06/20 01:42:55;;;;;;;13.85;3.20;;;13.50;99.90;;;;;;5063595;28;25070;-60
2022/06/20 01:48:09;;;;;;;14.13;3.05;;;13.40;99.90;;;;;;5055699;28;25082;-60
2022/06/20 01:50:35;;;;;;;13.30;3.67;;;13.40;99.90;;;;;;5054173;28;25079;-59
2022/06/20 01:53:04;;;;;;;8.88;3.35;;;13.40;99.90;;;;;;5051271;28;25075;-60
2022/06/20 01:55:31;;;;;;;15.23;3.25;;;13.40;99.90;;;;;;5055656;28;25145;-59
2022/06/20 01:58:07;;;;;;;13.60;3.03;;;13.40;99.90;;;;;;5067329;28;25144;-60
2022/06/20 02:00:34;;;;;;;17.85;4.93;;;13.40;99.90;;;;;;5077122;28;25052;-60
2022/06/20 02:03:05;;;;;;;12.43;4.28;;;13.40;99.90;;;;;;5062948;28;25086;-60
2022/06/20 02:05:32;;;;;;;13.85;4.43;;;13.30;99.90;;;;;;5077351;28;25059;-60
2022/06/20 02:08:00;;;;;;;12.55;4.30;;;13.40;99.90;;;;;;5061690;28;25068;-60
2022/06/20 02:10:59;;;;;;;15.68;4.47;;;13.40;99.90;;;;;;5071063;28;25101;-60
2022/06/20 02:13:27;;;;;;;19.13;4.28;;;13.40;99.90;;;;;;5063949;28;25149;-59
2022/06/20 02:15:58;;;;;;;15.10;4.47;;;13.40;99.90;;;;;;5062593;28;25075;-59
2022/06/20 02:18:30;;;;;;;18.92;4.70;;;13.40;99.90;;;;;;5066855;28;25107;-60
2022/06/20 02:21:01;;;;;;;14.20;4.22;;;13.40;99.90;;;;;;5058802;28;25096;-59
2022/06/20 02:23:32;;;;;;;15.95;4.45;;;13.40;99.90;;;;;;5058063;28;25050;-60
2022/06/20 02:26:00;;;;;;;16.88;4.88;;;13.40;99.90;;;;;;5061291;28;25046;-59
2022/06/20 02:28:46;;;;;;;23.60;5.63;;;13.30;99.90;;;;;;5040032;28;25134;-59
2022/06/20 02:31:11;;;;;;;15.15;4.55;;;13.30;99.90;;;;;;5065453;28;25056;-59
2022/06/20 02:33:37;;;;;;;16.08;4.85;;;13.40;99.90;;;;;;5060467;28;25075;-60
2022/06/20 02:36:06;;;;;;;19.00;5.00;;;13.30;99.90;;;;;;5061301;28;25118;-60
2022/06/20 02:38:33;;;;;;;15.35;4.10;;;13.30;99.90;;;;;;5067846;28;25086;-60
2022/06/20 02:40:59;;;;;;;16.35;4.88;;;13.30;99.90;;;;;;5057630;28;25141;-58
2022/06/20 02:43:40;;;;;;;16.58;4.68;;;13.30;99.90;;;;;;5063577;28;25147;-60
2022/06/20 02:46:13;;;;;;;15.37;4.77;;;13.30;99.90;;;;;;5067749;28;25069;-59
2022/06/20 02:48:42;;;;;;;16.13;4.93;;;13.30;99.90;;;;;;5067954;28;25097;-59
2022/06/20 02:51:10;;;;;;;16.98;5.20;;;13.30;99.90;;;;;;5062145;28;25065;-59
2022/06/20 02:53:44;;;;;;;14.38;4.97;;;13.30;99.90;;;;;;5057239;28;25069;-59
2022/06/20 02:56:15;;;;;;;16.10;4.55;;;13.30;99.90;;;;;;5070401;28;25060;-59
2022/06/20 02:58:44;;;;;;;10.93;4.43;;;13.30;99.90;;;;;;5079631;28;25054;-59
2022/06/20 03:01:35;;;;;;;12.07;4.10;;;13.30;99.90;;;;;;5069777;28;25063;-60
2022/06/20 03:04:01;;;;;;;15.60;4.72;;;13.30;99.90;;;;;;5016522;28;25060;-59
2022/06/20 03:06:35;;;;;;;16.13;4.75;;;13.20;99.90;;;;;;5067084;28;25124;-63
2022/06/20 03:09:01;;;;;;;19.73;5.82;;;13.20;99.90;;;;;;5053804;28;25058;-59
2022/06/20 03:11:30;;;;;;;17.13;4.97;;;13.20;99.90;;;;;;5063246;28;25076;-60
2022/06/20 03:13:59;;;;;;;14.75;5.00;;;13.20;99.90;;;;;;5061921;28;25043;-59
2022/06/20 03:16:26;;;;;;;13.75;4.30;;;13.10;99.90;;;;;;5068938;28;25108;-60
2022/06/20 03:18:53;;;;;;;19.88;4.55;;;13.20;99.90;;;;;;5060023;28;25082;-59
2022/06/20 03:21:23;;;;;;;14.90;4.18;;;13.20;99.90;;;;;;5065359;28;25127;-59
2022/06/20 03:23:49;;;;;;;14.10;4.10;;;13.10;99.90;;;;;;5064719;28;25146;-60
2022/06/20 03:26:22;;;;;;;12.40;5.10;;;13.10;99.90;;;;;;5059524;28;24941;-59
2022/06/20 03:28:48;;;;;;;13.65;4.50;;;13.10;99.90;;;;;;5042784;28;25135;-60
2022/06/20 03:31:14;;;;;;;12.70;4.28;;;13.00;99.90;;;;;;5071299;28;25067;-60
2022/06/20 03:33:40;;;;;;;12.85;4.05;;;13.10;99.90;;;;;;5062314;28;25063;-59
2022/06/20 03:36:25;;;;;;;20.42;4.65;;;13.10;99.90;;;;;;5061641;28;25081;-59
2022/06/20 03:38:50;;;;;;;19.42;4.07;;;13.10;99.90;;;;;;5046429;28;25053;-61
2022/06/20 03:41:23;;;;;;;12.85;4.25;;;13.00;99.90;;;;;;5041556;28;25152;-59
2022/06/20 03:43:55;;;;;;;15.15;3.95;;;13.00;99.90;;;;;;5038340;28;25102;-60
2022/06/20 03:46:27;;;;;;;14.27;4.10;;;13.00;99.90;;;;;;5056700;28;25176;-60
2022/06/20 03:48:55;;;;;;;;;;;13.00;99.90;;;;;;5061941;28;25117;-59
2022/06/20 03:51:25;;;;;;;18.30;4.03;;;13.10;99.90;;;;;;5073937;28;24153;-60
2022/06/20 03:54:08;;;;;;;11.38;3.42;;;13.10;99.90;;;;;;5065352;28;25076;-60
2022/06/20 03:56:53;;;;;;;14.93;3.90;;;13.10;99.90;;;;;;5054611;28;25119;-60
2022/06/20 03:59:35;;;;;;;14.30;3.35;;;13.10;99.90;;;;;;5068675;28;25078;-61
2022/06/20 04:02:48;;;;;;;15.77;3.80;;;13.20;99.90;;;;;;5075495;28;25150;-59
2022/06/20 04:05:31;;;;;;;15.38;4.43;;;13.20;99.90;;;;;;5056420;28;25160;-58
2022/06/20 04:08:06;;;;;;;8.65;3.20;;;13.10;99.90;;;;;;5061161;28;25154;-59
2022/06/20 04:13:42;;;;;;;9.57;3.45;;;13.20;99.90;;;;;;5062774;28;25073;-59
2022/06/20 04:16:17;;;;;;;13.93;3.38;;;13.20;99.90;;;;;;5052468;28;24933;-59
2022/06/20 04:19:13;;;;;;;11.77;3.55;;;13.20;99.90;;;;;;5056037;28;25070;-60
2022/06/20 04:21:48;;;;;;;15.70;3.47;;;13.20;99.90;;;;;;5059195;28;25118;-60
2022/06/20 04:24:32;;;;;;;10.02;3.53;;;13.20;99.90;;;;;;5058324;28;25110;-59
2022/06/20 04:27:03;;;;;;;13.50;3.65;;;13.20;99.90;;;;;;5054814;28;25085;-60
2022/06/20 04:29:41;;;;;;;11.60;3.13;;;13.20;99.90;;;;;;5062202;28;25065;-60
2022/06/20 04:32:34;;;;;;;7.95;3.60;;;13.20;99.90;;;;;;5066888;28;25070;-59
2022/06/20 04:35:22;;;;;;;10.88;3.05;;;13.20;99.90;;;;;;5061204;28;25114;-59
2022/06/20 04:37:53;;;;;;;15.25;3.38;;;13.30;99.90;;;;;;5039425;28;25049;-60
2022/06/20 04:40:27;;;;;;;8.27;2.70;;;13.30;99.90;;;;;;5063352;28;25090;-59
2022/06/20 04:43:17;;;;;;;15.35;3.00;;;13.40;99.90;;;;;;5057893;28;25065;-59
2022/06/20 04:46:24;;;;;;;13.35;3.22;;;13.40;99.90;;;;;;5057390;28;25100;-59
2022/06/20 04:48:50;;;;;;;11.23;3.47;;;13.50;99.90;;;;;;5060940;28;25176;-60
2022/06/20 04:51:25;;;;;;;13.32;3.50;;;13.60;99.90;;;;;;5060711;28;25113;-59
2022/06/20 04:53:51;;;;;;;7.25;2.88;;;13.60;99.90;;;;;;5061172;28;25140;-60
2022/06/20 04:56:26;;;;;;;19.10;4.18;;;13.60;99.90;;;;;;5063871;28;25141;-60
2022/06/20 04:58:56;;;;;;;11.23;3.28;;;13.50;99.90;;;;;;5044312;28;25067;-59
2022/06/20 05:01:22;;;;;;;19.95;3.85;;;13.50;99.90;;;;;;5058339;28;25060;-59
2022/06/20 05:03:56;;;;;;;8.57;3.83;;;13.50;99.90;;;;;;5054873;28;25148;-59
2022/06/20 05:06:34;;;;;;;20.00;3.60;;;13.50;99.90;;;;;;5058118;28;25052;-60
2022/06/20 05:09:09;;;;;;;15.38;3.60;;;13.40;99.90;;;;;;5053581;28;25075;-60
2022/06/20 05:11:44;;;;;;;16.48;3.10;;;13.40;99.90;;;;;;5054517;28;25067;-60
2022/06/20 05:14:30;;;;;;;22.80;3.60;;;13.50;99.90;;;;;;5044264;28;25063;-59
2022/06/20 05:16:56;;;;;;;11.07;3.15;;;13.50;99.90;;;;;;5061082;28;25061;-59
2022/06/20 05:19:35;;;;;;;8.13;3.00;;;13.60;99.90;;;;;;5049854;28;25084;-60
2022/06/20 05:22:08;;;;;;;12.32;3.10;;;13.60;99.90;;;;;;5055593;28;25102;-61
2022/06/20 05:24:36;;;;;;;13.85;3.20;;;13.60;99.90;;;;;;5052890;28;25052;-59
2022/06/20 05:27:10;;;;;;;20.95;3.50;;;13.60;99.90;;;;;;5052336;28;25050;-59
2022/06/20 05:29:37;;;;;;;11.77;2.83;;;13.80;99.90;;;;;;5058700;28;25060;-59
2022/06/20 05:32:07;;;;;;;14.30;3.90;;;13.80;99.90;;;;;;5053226;28;25151;-60
2022/06/20 05:34:44;;;;;;;10.63;3.25;;;13.80;99.90;;;;;;5054186;28;25115;-59
2022/06/20 05:37:15;;;;;;;11.95;3.00;;;13.70;99.90;;;;;;5057570;28;25082;-60
2022/06/20 05:39:55;;;;;;;9.27;3.33;;;13.80;99.90;;;;;;5059717;28;25064;-61
2022/06/20 05:42:20;;;;;;;11.40;3.45;;;13.80;99.90;;;;;;5058188;28;25083;-60
2022/06/20 05:44:46;;;;;;;14.07;3.25;;;13.90;99.90;;;;;;5061693;28;25112;-60
2022/06/20 05:47:30;;;;;;;9.70;3.10;;;13.90;99.90;;;;;;5059417;28;25087;-59
2022/06/20 05:50:28;;;;;;;10.80;3.25;;;14.00;99.90;;;;;;5057474;28;25080;-60
2022/06/20 05:52:55;;;;;;;9.82;2.95;;;14.20;99.90;;;;;;5047086;28;25083;-60
2022/06/20 05:55:26;;;;;;;13.25;3.00;;;14.30;99.90;;;;;;5054325;28;25073;-60
2022/06/20 05:57:55;;;;;;;6.43;3.55;;;14.30;99.90;;;;;;5059057;28;25130;-60
2022/06/20 06:00:33;;;;;;;9.00;3.20;;;14.40;99.90;;;;;;5056681;28;25103;-60
2022/06/20 06:03:26;;;;;;;12.65;3.72;;;14.60;99.90;;;;;;5059047;28;25081;-61
2022/06/20 06:05:58;;;;;;;;;;;14.60;99.90;;;;;;5057594;28;25071;-61
2022/06/20 06:08:29;;;;;;;15.80;4.95;;;14.70;99.90;;;;;;5059527;28;24082;-60
2022/06/20 06:11:13;;;;;;;12.52;3.42;;;14.80;99.90;;;;;;5065585;28;25051;-60
2022/06/20 06:13:43;;;;;;;11.23;3.70;;;15.00;99.90;;;;;;5073096;28;25068;-61
2022/06/20 06:16:49;;;;;;;14.73;3.47;;;14.80;99.90;;;;;;5076708;28;25056;-60
2022/06/20 06:19:50;;;;;;;9.90;2.88;;;14.90;99.90;;;;;;5058758;28;25110;-59
2022/06/20 06:22:22;;;;;;;10.10;3.13;;;15.20;99.90;;;;;;5078723;28;25069;-61
2022/06/20 06:24:52;;;;;;;;;;;15.30;99.90;;;;;;5062380;28;25129;-61
2022/06/20 06:27:24;;;;;;;11.35;3.90;;;15.00;99.90;;;;;;5053293;28;24066;-61
2022/06/20 06:30:12;;;;;;;23.63;4.32;;;15.00;99.90;;;;;;5054112;28;25085;-59
2022/06/20 06:32:45;;;;;;;9.45;3.55;;;15.10;99.90;;;;;;5056254;28;25158;-59
2022/06/20 06:35:28;;;;;;;15.45;3.83;;;15.40;99.90;;;;;;5056807;28;25184;-60
2022/06/20 06:38:01;;;;;;;9.50;2.67;;;15.70;99.90;;;;;;5043906;28;25067;-59
2022/06/20 06:40:53;;;;;;;13.05;3.15;;;15.50;99.90;;;;;;5061434;28;25055;-60
2022/06/20 06:43:38;;;;;;;11.40;3.40;;;15.60;99.90;;;;;;5060787;28;25063;-61
2022/06/20 06:46:09;;;;;;;10.32;2.95;;;15.70;99.90;;;;;;5052030;28;25131;-62
2022/06/20 06:48:44;;;;;;;9.77;2.90;;;15.70;99.90;;;;;;5063205;28;25073;-60
2022/06/20 06:51:15;;;;;;;12.52;3.15;;;15.80;99.90;;;;;;5049045;28;25080;-61
2022/06/20 06:53:48;;;;;;;13.68;3.63;;;15.80;99.90;;;;;;5066547;28;25072;-61
2022/06/20 06:56:27;;;;;;;16.17;3.30;;;15.50;99.90;;;;;;5057542;28;25060;-60
2022/06/20 06:59:05;;;;;;;9.77;3.08;;;15.30;99.90;;;;;;5060219;28;25040;-60
2022/06/20 07:01:43;;;;;;;11.57;3.33;;;15.40;99.90;;;;;;5054430;28;25086;-59
2022/06/20 07:04:14;;;;;;;13.77;3.00;;;15.60;99.90;;;;;;5075049;28;25077;-59
2022/06/20 07:06:48;;;;;;;9.70;3.20;;;15.80;99.90;;;;;;5052848;28;25082;-59
2022/06/20 07:09:18;;;;;;;10.02;3.40;;;15.90;99.90;;;;;;5061061;28;25069;-60
2022/06/20 07:12:10;;;;;;;11.57;3.72;;;16.00;99.90;;;;;;5067093;28;25078;-60
2022/06/20 07:14:41;;;;;;;12.13;3.53;;;16.20;99.90;;;;;;5062590;28;25137;-60
2022/06/20 07:17:40;;;;;;;14.95;3.55;;;16.60;99.90;;;;;;5059523;28;25082;-61
2022/06/20 07:20:08;;;;;;;9.23;3.22;;;17.10;99.90;;;;;;5059863;28;25075;-60
2022/06/20 07:22:36;;;;;;;19.13;5.88;;;16.90;99.90;;;;;;5063590;28;25055;-61
2022/06/20 07:25:03;;;;;;;10.38;3.42;;;16.40;99.90;;;;;;5064542;28;25080;-60
2022/06/20 07:27:38;;;;;;;12.95;4.35;;;16.00;99.90;;;;;;5066848;28;25079;-60
2022/06/20 07:30:10;;;;;;;11.48;3.35;;;15.80;99.90;;;;;;5046099;28;25059;-61
2022/06/20 07:33:05;;;;;;;8.43;3.63;;;15.90;99.90;;;;;;5059488;28;25073;-60
2022/06/20 07:35:34;;;;;;;12.20;3.75;;;15.90;99.90;;;;;;5064075;28;25059;-61
2022/06/20 07:38:06;;;;;;;10.77;3.70;;;15.80;99.90;;;;;;5064138;28;25129;-59
2022/06/20 07:40:39;;;;;;;7.70;2.72;;;15.60;99.90;;;;;;5063953;28;25130;-60
2022/06/20 07:43:10;;;;;;;15.00;3.97;;;15.50;99.90;;;;;;5065634;28;25068;-60
2022/06/20 07:45:48;;;;;;;11.53;3.43;;;15.50;99.90;;;;;;5070972;28;25121;-60
2022/06/20 07:48:25;;;;;;;8.43;3.83;;;15.80;99.90;;;;;;5068683;28;25056;-59
2022/06/20 07:51:21;;;;;;;10.45;3.70;;;16.00;99.90;;;;;;5068037;28;25049;-60
2022/06/20 07:54:02;;;;;;;14.27;3.30;;;16.00;99.90;;;;;;5047457;28;25133;-59
2022/06/20 07:56:32;;;;;;;14.00;3.45;;;16.40;99.90;;;;;;5066681;28;25080;-59
2022/06/20 07:59:20;;;;;;;11.20;3.33;;;16.50;99.90;;;;;;5065960;28;25152;-60
2022/06/20 08:01:53;;;;;;;8.77;2.92;;;16.40;99.90;;;;;;5064847;28;25073;-60
2022/06/20 08:04:27;;;;;;;7.88;2.97;;;16.80;99.90;;;;;;5050594;28;25151;-59
2022/06/20 08:07:01;;;;;;;7.97;2.63;;;17.00;99.90;;;;;;5058034;28;25102;-60
2022/06/20 08:09:27;;;;;;;11.93;2.75;;;17.40;99.90;;;;;;5056016;28;25051;-62
2022/06/20 08:12:02;;;;;;;10.70;2.63;;;17.40;99.90;;;;;;5040725;28;25067;-60
2022/06/20 08:14:51;;;;;;;11.15;3.20;;;17.60;99.90;;;;;;5048097;28;25053;-60
2022/06/20 08:17:17;;;;;;;12.23;2.97;;;17.20;99.90;;;;;;5059974;28;25156;-61
2022/06/20 08:19:44;;;;;;;7.75;2.60;;;17.00;99.90;;;;;;5054520;28;25079;-60
2022/06/20 08:22:18;;;;;;;12.20;3.42;;;16.60;99.90;;;;;;5052320;28;25057;-61
2022/06/20 08:25:00;;;;;;;10.25;3.00;;;16.70;99.90;;;;;;5071347;28;25064;-60
2022/06/20 08:27:56;;;;;;;9.37;2.70;;;17.10;99.90;;;;;;5054583;28;25059;-61
2022/06/20 08:30:37;;;;;;;8.85;3.10;;;17.10;98.70;;;;;;5054154;28;25077;-61
2022/06/20 08:33:13;;;;;;;10.55;3.10;;;17.30;97.70;;;;;;5049749;28;25070;-61
2022/06/20 08:35:43;;;;;;;10.10;2.90;;;17.10;97.40;;;;;;5047750;28;25056;-60
2022/06/20 08:38:17;;;;;;;8.98;2.60;;;17.40;99.90;;;;;;5061030;28;25065;-60
2022/06/20 08:41:18;;;;;;;10.95;3.08;;;17.50;98.80;;;;;;5056300;28;25072;-60
2022/06/20 08:43:46;;;;;;;12.77;3.05;;;17.10;99.90;;;;;;5051968;28;25109;-60
2022/06/20 08:46:22;;;;;;;14.70;3.25;;;17.00;99.90;;;;;;5053574;28;25061;-61
2022/06/20 08:49:23;;;;;;;9.77;3.25;;;17.50;99.90;;;;;;5058769;28;25145;-60
2022/06/20 08:52:10;;;;;;;10.55;3.30;;;17.90;99.90;;;;;;5058627;28;26152;-60
2022/06/20 08:55:17;;;;;;;9.35;3.22;;;17.70;95.50;;;;;;5063494;28;25080;-60
2022/06/20 08:57:51;;;;;;;11.40;3.65;;;17.90;98.10;;;;;;5050911;28;25054;-60
2022/06/20 09:00:48;;;;;;;12.48;3.10;;;17.80;94.30;;;;;;5065569;28;25058;-60
2022/06/20 09:03:47;;;;;;;11.77;2.83;;;18.00;94.30;;;;;;5055711;28;25159;-60
2022/06/20 09:06:24;;;;;;;13.57;3.65;;;17.50;93.50;;;;;;5060222;28;25063;-59
2022/06/20 09:09:13;;;;;;;14.20;2.90;;;17.30;96.70;;;;;;5065194;28;25065;-60
2022/06/20 09:12:15;;;;;;;11.95;2.75;;;17.60;98.10;;;;;;5057675;28;25102;-59
2022/06/20 09:14:40;;;;;;;10.70;2.60;;;17.80;94.70;;;;;;5063827;28;25056;-60
2022/06/20 09:17:43;;;;;;;10.02;2.90;;;17.90;91.40;;;;;;5067205;28;25056;-61
2022/06/20 09:20:21;;;;;;;9.27;2.72;;;18.50;90.50;;;;;;5039808;28;25100;-61
2022/06/20 09:22:59;;;;;;;8.15;2.42;;;18.60;76.90;;;;;;5061626;28;25076;-59
2022/06/20 09:25:54;;;;;;;13.10;2.80;;;18.00;87.00;;;;;;5063442;28;25049;-62
2022/06/20 09:28:37;;;;;;;7.97;2.35;;;17.70;90.00;;;;;;5056787;28;25097;-61
2022/06/20 09:31:30;;;;;;;8.52;2.15;;;18.10;90.50;;;;;;5058744;28;25074;-60
2022/06/20 09:34:14;;;;;;;8.38;2.53;;;18.70;85.00;;;;;;5066615;28;25142;-61
2022/06/20 09:36:58;;;;;;;9.98;2.58;;;19.20;84.00;;;;;;5064470;28;25055;-61
2022/06/20 09:39:38;;;;;;;8.40;2.53;;;19.20;75.60;;;;;;5051600;28;25067;-61
2022/06/20 09:42:33;;;;;;;8.15;2.15;;;18.60;76.30;;;;;;5057446;28;25060;-60
2022/06/20 09:45:04;;;;;;;10.55;2.38;;;18.80;79.00;;;;;;5057922;28;25109;-62
2022/06/20 09:47:39;;;;;;;8.85;2.78;;;18.60;80.30;;;;;;5063428;28;25064;-61
2022/06/20 09:50:12;;;;;;;9.10;2.47;;;18.60;81.60;;;;;;5058839;28;25114;-62
2022/06/20 09:53:08;;;;;;;7.10;1.98;;;19.40;79.00;;;;;;5058586;28;25055;-61
2022/06/20 09:55:52;;;;;;;7.78;2.58;;;19.70;66.60;;;;;;5055415;28;25089;-61
2022/06/20 09:58:42;;;;;;;9.20;2.08;;;19.30;69.00;;;;;;5063091;28;25041;-60
2022/06/20 10:01:28;;;;;;;5.47;2.22;;;19.30;57.60;;;;;;5056417;28;25183;-59
2022/06/20 10:04:23;;;;;;;8.50;2.67;;;19.00;60.70;;;;;;5063456;28;25173;-61
2022/06/20 10:07:00;;;;;;;7.40;2.42;;;19.50;56.70;;;;;;5063405;28;25134;-61
2022/06/20 10:09:47;;;;;;;7.50;2.13;;;19.90;57.20;;;;;;5064979;28;25088;-61
2022/06/20 10:12:37;;;;;;;7.22;2.70;;;19.60;61.30;;;;;;5065298;28;25101;-60
2022/06/20 10:15:12;;;;;;;9.80;2.40;;;19.00;60.70;;;;;;5056515;28;25059;-60
2022/06/20 10:18:05;;;;;;;6.75;2.67;;;18.80;66.90;;;;;;5068588;28;25079;-60
2022/06/20 10:20:33;;;;;;;8.60;2.30;;;19.30;64.70;;;;;;5060238;28;25087;-61
2022/06/20 10:23:09;;;;;;;7.07;2.58;;;19.50;57.40;;;;;;5061457;28;25133;-61
2022/06/20 10:26:06;;;;;;;10.07;2.28;;;19.00;60.90;;;;;;5044239;28;25077;-61
2022/06/20 10:28:50;;;;;;;13.40;2.50;;;19.60;59.30;;;;;;5054796;28;25075;-60
2022/06/20 10:31:38;;;;;;;8.88;2.33;;;20.00;54.20;;;;;;5062315;28;25068;-61
2022/06/20 10:34:07;;;;;;;9.30;3.10;;;19.70;50.80;;;;;;5058969;28;25148;-61
2022/06/20 10:37:09;;;;;;;9.38;2.38;;;19.00;58.00;;;;;;5062123;28;25156;-62
2022/06/20 10:39:50;;;;;;;7.60;2.20;;;19.00;51.40;;;;;;5042641;28;25106;-60
2022/06/20 10:42:18;;;;;;;8.80;2.40;;;19.20;57.50;;;;;;5060316;28;25104;-62
2022/06/20 10:45:18;;;;;;;7.95;2.67;;;19.40;51.90;;;;;;5063994;28;25067;-61
2022/06/20 10:47:55;;;;;;;11.52;3.15;;;20.10;49.70;;;;;;5055911;28;25169;-61
2022/06/20 10:50:20;;;;;;;8.90;2.63;;;19.80;50.50;;;;;;5058261;28;25122;-62
2022/06/20 10:53:33;;;;;;;7.78;3.08;;;19.80;53.20;;;;;;5062563;28;25075;-63
2022/06/20 10:56:27;;;;;;;7.05;2.10;;;19.30;62.10;;;;;;4965908;28;25060;-59
2022/06/20 10:59:21;;;;;;;5.18;1.92;;;19.30;52.40;;;;;;5045602;28;25072;-62
2022/06/20 11:01:53;;;;;;;6.93;1.98;;;19.50;48.10;;;;;;5062161;28;25090;-61
2022/06/20 11:04:28;;;;;;;;;;;19.60;46.00;;;;;;5071682;28;25064;-61
2022/06/20 11:07:16;;;;;;;12.00;2.60;;;19.80;45.80;;;;;;5060977;28;24131;-60
2022/06/20 11:09:50;;;;;;;13.20;2.28;;;19.60;42.50;;;;;;5062310;28;25116;-61
2022/06/20 11:12:26;;;;;;;7.57;2.30;;;19.90;47.90;;;;;;5047425;28;25063;-62
2022/06/20 11:15:14;;;;;;;11.45;2.67;;;19.20;53.40;;;;;;5063307;28;25067;-62
2022/06/20 11:17:48;;;;;;;8.38;2.58;;;19.00;57.20;;;;;;5063419;28;25070;-62
2022/06/20 11:20:54;;;;;;;9.98;2.80;;;19.70;56.70;;;;;;5059464;28;25081;-60
2022/06/20 11:23:30;;;;;;;9.43;2.28;;;19.70;54.60;;;;;;5047996;28;25065;-63
2022/06/20 11:26:21;;;;;;;10.55;2.88;;;19.40;59.70;;;;;;5060805;28;25132;-61
2022/06/20 11:28:52;;;;;;;8.50;2.85;;;20.20;57.00;;;;;;5055079;28;25084;-60
2022/06/20 11:31:57;;;;;;;11.13;3.17;;;19.70;54.30;;;;;;5056970;28;25112;-61
2022/06/20 11:34:44;;;;;;;16.52;4.03;;;20.10;59.20;;;;;;5051597;28;25075;-61
2022/06/20 11:37:32;;;;;;;10.48;2.50;;;19.80;61.10;;;;;;5058557;28;25077;-61
2022/06/20 11:40:09;;;;;;;13.50;2.95;;;19.70;60.80;;;;;;5060006;28;25167;-61
2022/06/20 11:42:50;;;;;;;8.48;2.53;;;19.70;60.20;;;;;;5057106;28;25079;-61
2022/06/20 11:45:22;;;;;;;13.77;2.90;;;20.30;59.60;;;;;;5062861;28;25134;-61
2022/06/20 11:47:59;;;;;;;13.77;3.00;;;20.20;50.80;;;;;;5066839;28;25059;-60
2022/06/20 11:50:43;;;;;;;9.57;2.78;;;19.60;53.40;;;;;;5067689;28;25159;-61
2022/06/20 11:53:36;;;;;;;6.55;2.88;;;20.00;55.70;;;;;;5064186;28;25056;-60
2022/06/20 11:56:29;;;;;;;10.68;2.42;;;19.60;49.20;;;;;;5061022;28;25050;-60
2022/06/20 11:59:01;;;;;;;14.15;3.22;;;19.50;58.10;;;;;;5065471;28;25088;-61
2022/06/20 12:01:49;;;;;;;12.30;2.33;;;18.90;59.60;;;;;;5066363;28;25091;-61
2022/06/20 12:04:14;;;;;;;5.63;2.45;;;18.70;64.10;;;;;;5055165;28;25089;-62
2022/06/20 12:06:49;;;;;;;8.23;2.05;;;19.00;59.60;;;;;;5062446;28;25119;-62
2022/06/20 12:09:34;;;;;;;9.15;2.30;;;19.40;58.50;;;;;;5062020;28;25073;-60
2022/06/20 12:12:20;;;;;;;8.30;2.88;;;19.30;47.30;;;;;;5060343;28;25178;-60
2022/06/20 12:15:04;;;;;;;6.57;1.88;;;18.50;46.80;;;;;;5057432;28;25058;-60
2022/06/20 12:17:39;;;;;;;3.65;1.67;;;18.40;51.70;;;;;;5071628;28;25066;-62
2022/06/20 12:23:30;;;;;;;10.48;2.63;;;19.60;55.30;;;;;;5058398;28;25064;-61
2022/06/20 12:26:01;;;;;;;6.60;2.17;;;20.00;51.60;;;;;;5058812;28;25058;-62
2022/06/20 12:28:35;;;;;;;10.32;2.05;;;19.50;49.70;;;;;;5060231;28;25100;-61
2022/06/20 12:31:13;;;;;;;9.63;2.28;;;19.20;55.70;;;;;;5059809;28;25067;-62
2022/06/20 12:33:49;;;;;;;10.07;2.90;;;18.80;59.20;;;;;;5053421;28;25142;-60
2022/06/20 12:36:25;;;;;;;9.85;2.95;;;18.80;63.50;;;;;;5058956;28;25098;-60
2022/06/20 12:38:57;;;;;;;11.82;3.25;;;18.90;62.90;;;;;;5064047;28;25061;-62
2022/06/20 12:41:26;;;;;;;11.63;2.50;;;18.80;59.20;;;;;;5066149;28;25056;-61
2022/06/20 12:44:11;;;;;;;7.25;2.80;;;19.00;60.90;;;;;;5058495;28;25106;-62
2022/06/20 12:47:15;;;;;;;10.27;2.58;;;19.10;59.90;;;;;;5064852;28;25119;-62
2022/06/20 12:49:41;;;;;;;10.15;1.92;;;19.50;57.70;;;;;;5064354;28;25097;-62
2022/06/20 12:52:25;;;;;;;7.35;2.55;;;19.20;53.30;;;;;;5060127;28;25151;-61
2022/06/20 12:55:10;;;;;;;10.02;2.60;;;19.00;56.20;;;;;;5060257;28;25066;-61
2022/06/20 12:57:49;;;;;;;12.18;2.92;;;18.80;63.30;;;;;;5062454;28;25134;-62
2022/06/20 13:00:22;;;;;;;15.82;3.08;;;18.60;68.40;;;;;;5056312;28;25068;-59
2022/06/20 13:03:06;;;;;;;13.38;3.90;;;18.70;67.30;;;;;;5062714;28;25142;-61
2022/06/20 13:05:57;;;;;;;7.00;2.40;;;18.50;72.20;;;;;;5060996;28;25253;-61
2022/06/20 13:08:37;;;;;;;7.75;2.60;;;18.60;77.10;;;;;;5061286;28;25088;-60
2022/06/20 13:11:33;;;;;;;8.70;2.50;;;19.00;71.90;;;;;;5043366;28;25083;-60
2022/06/20 13:14:01;;;;;;;14.25;3.13;;;18.70;70.90;;;;;;5059751;28;25059;-61
2022/06/20 13:16:41;;;;;;;11.27;4.15;;;18.40;75.10;;;;;;5062275;28;25086;-61
2022/06/20 13:19:22;;;;;;;10.35;3.17;;;18.40;77.40;;;;;;5062160;28;25103;-61
2022/06/20 13:21:59;;;;;;;14.45;3.17;;;18.90;74.50;;;;;;5059475;28;25072;-62
2022/06/20 13:24:42;;;;;;;10.57;2.70;;;18.80;70.60;;;;;;5064551;28;25055;-61
2022/06/20 13:27:25;;;;;;;13.73;3.30;;;18.90;72.90;;;;;;5055287;28;25064;-61
2022/06/20 13:30:09;;;;;;;7.80;2.45;;;18.90;80.30;;;;;;5057339;28;25064;-63
2022/06/20 13:33:10;;;;;;;10.48;2.90;;;18.80;75.60;;;;;;5061093;28;25097;-60
2022/06/20 13:35:44;;;;;;;9.40;3.15;;;18.90;74.50;;;;;;5042752;28;25066;-62
2022/06/20 13:38:21;;;;;;;9.73;3.00;;;18.80;78.40;;;;;;5061119;28;25080;-62
2022/06/20 13:40:55;;;;;;;11.10;2.67;;;19.00;79.20;;;;;;5062124;28;25081;-61
2022/06/20 13:43:46;;;;;;;14.77;3.15;;;19.30;67.40;;;;;;5039843;28;25060;-62
2022/06/20 13:46:22;;;;;;;12.88;3.00;;;19.10;65.80;;;;;;5056676;28;25067;-60